createdAt,value
2022-09-20T00:00:01.889Z,0.00
2022-09-20T00:01:01.880Z,0.00
2022-09-20T00:02:01.853Z,0.00
2022-09-20T00:03:01.832Z,0.00
2022-09-20T00:04:02.466Z,0.00
2022-09-20T00:05:02.516Z,0.00
2022-09-20T00:06:02.456Z,0.00
2022-09-20T00:07:01.851Z,0.00
2022-09-20T00:08:01.954Z,0.00
2022-09-20T00:09:02.428Z,0.00
2022-09-20T00:10:02.539Z,0.00
2022-09-20T00:11:01.786Z,0.00
2022-09-20T00:12:01.721Z,0.00
2022-09-20T00:13:01.742Z,0.00
2022-09-20T00:14:02.397Z,0.00
2022-09-20T00:15:02.380Z,0.00
2022-09-20T00:16:01.736Z,0.00
2022-09-20T00:17:02.422Z,0.00
2022-09-20T00:18:01.644Z,0.00
2022-09-20T00:19:02.321Z,0.00
2022-09-20T00:20:02.823Z,0.00
2022-09-20T00:21:01.628Z,0.00
2022-09-20T00:22:01.724Z,0.00
2022-09-20T00:23:03.520Z,0.00
2022-09-20T00:24:02.255Z,0.00
2022-09-20T00:25:02.238Z,0.00
2022-09-20T00:26:01.556Z,0.00
2022-09-20T00:27:01.656Z,0.00
2022-09-20T00:28:01.828Z,0.00
2022-09-20T00:29:01.581Z,0.00
2022-09-20T00:30:02.197Z,0.00
2022-09-20T00:31:02.188Z,0.00
2022-09-20T00:32:02.674Z,0.00
2022-09-20T00:33:02.157Z,0.00
2022-09-20T00:34:02.248Z,0.00
2022-09-20T00:35:01.487Z,0.00
2022-09-20T00:36:01.497Z,0.00
2022-09-20T00:37:01.510Z,0.00
2022-09-20T00:38:01.438Z,0.00
2022-09-20T00:39:01.454Z,0.00
2022-09-20T00:40:01.646Z,0.00
2022-09-20T00:41:01.518Z,0.00
2022-09-20T00:42:02.060Z,0.00
2022-09-20T00:43:02.051Z,0.00
2022-09-20T00:44:02.039Z,0.00
2022-09-20T00:45:01.447Z,0.00
2022-09-20T00:46:02.116Z,0.00
2022-09-20T00:47:02.023Z,0.00
2022-09-20T00:48:01.370Z,0.00
2022-09-20T00:49:01.991Z,0.00
2022-09-20T00:50:01.973Z,0.00
2022-09-20T00:51:01.302Z,0.00
2022-09-20T00:52:01.320Z,0.00
2022-09-20T00:53:01.271Z,0.00
2022-09-20T00:54:01.962Z,0.00
2022-09-20T00:55:01.926Z,0.00
2022-09-20T00:56:01.255Z,0.00
2022-09-20T00:57:01.310Z,0.00
2022-09-20T00:58:01.245Z,0.00
2022-09-20T00:59:01.215Z,0.00
2022-09-20T01:00:01.896Z,0.00
2022-09-20T01:01:01.942Z,0.00
2022-09-20T01:02:01.309Z,0.00
2022-09-20T01:03:01.833Z,0.00
2022-09-20T01:04:01.241Z,0.00
2022-09-20T01:05:01.147Z,0.00
2022-09-20T01:06:02.607Z,0.00
2022-09-20T01:07:01.306Z,0.00
2022-09-20T01:08:01.164Z,0.00
2022-09-20T01:09:01.197Z,0.00
2022-09-20T01:10:01.215Z,0.00
2022-09-20T01:11:01.756Z,0.00
2022-09-20T01:12:01.095Z,0.00
2022-09-20T01:13:01.754Z,0.00
2022-09-20T01:14:01.716Z,0.00
2022-09-20T01:15:02.398Z,0.00
2022-09-20T01:16:01.084Z,0.00
2022-09-20T01:17:01.102Z,0.00
2022-09-20T01:18:00.979Z,0.00
2022-09-20T01:19:00.988Z,0.00
2022-09-20T01:20:01.076Z,0.00
2022-09-20T01:21:01.016Z,0.00
2022-09-20T01:22:01.017Z,0.00
2022-09-20T01:23:01.068Z,0.00
2022-09-20T01:24:00.957Z,0.00
2022-09-20T01:25:00.988Z,0.00
2022-09-20T01:26:00.919Z,0.00
2022-09-20T01:27:02.359Z,0.00
2022-09-20T01:28:00.929Z,0.00
2022-09-20T01:29:00.950Z,0.00
2022-09-20T01:30:00.910Z,0.00
2022-09-20T01:31:00.876Z,0.00
2022-09-20T01:32:00.921Z,0.00
2022-09-20T01:33:00.895Z,0.00
2022-09-20T01:34:00.870Z,0.00
2022-09-20T01:35:00.815Z,0.00
2022-09-20T01:36:00.824Z,0.00
2022-09-20T01:37:00.819Z,0.00
2022-09-20T01:38:01.471Z,0.00
2022-09-20T01:39:01.446Z,0.00
2022-09-20T01:40:00.955Z,0.00
2022-09-20T01:41:00.762Z,0.00
2022-09-20T01:42:00.830Z,0.00
2022-09-20T01:43:00.981Z,0.00
2022-09-20T01:44:01.402Z,0.00
2022-09-20T01:45:00.712Z,0.00
2022-09-20T01:46:02.318Z,0.00
2022-09-20T01:47:01.633Z,0.00
2022-09-20T01:48:00.743Z,0.00
2022-09-20T01:49:01.364Z,0.00
2022-09-20T01:50:01.332Z,0.00
2022-09-20T01:51:00.769Z,0.00
2022-09-20T01:52:00.756Z,0.00
2022-09-20T01:53:00.885Z,0.00
2022-09-20T01:54:00.669Z,0.00
2022-09-20T01:55:00.619Z,0.00
2022-09-20T01:56:00.605Z,0.00
2022-09-20T01:57:01.247Z,0.00
2022-09-20T01:58:00.617Z,0.00
2022-09-20T01:59:19.741Z,0.00
2022-09-20T02:00:01.595Z,0.00
2022-09-20T02:01:00.588Z,0.00
2022-09-20T02:02:01.240Z,0.00
2022-09-20T02:03:00.856Z,0.00
2022-09-20T02:04:01.258Z,0.00
2022-09-20T02:05:00.487Z,0.00
2022-09-20T02:06:00.507Z,0.00
2022-09-20T02:07:00.478Z,0.00
2022-09-20T02:08:01.408Z,0.00
2022-09-20T02:09:01.387Z,0.00
2022-09-20T02:10:00.559Z,0.00
2022-09-20T02:11:01.099Z,0.00
2022-09-20T02:12:01.093Z,0.00
2022-09-20T02:13:01.100Z,0.00
2022-09-20T02:14:01.840Z,0.00
2022-09-20T02:15:00.389Z,0.00
2022-09-20T02:16:00.410Z,0.00
2022-09-20T02:17:00.436Z,0.00
2022-09-20T02:18:01.030Z,0.00
2022-09-20T02:19:01.027Z,0.00
2022-09-20T02:20:01.015Z,0.00
2022-09-20T02:21:00.322Z,0.00
2022-09-20T02:22:00.420Z,0.00
2022-09-20T02:23:01.023Z,0.00
2022-09-20T02:24:00.965Z,0.00
2022-09-20T02:25:01.221Z,0.00
2022-09-20T02:26:00.949Z,0.00
2022-09-20T02:27:00.944Z,0.00
2022-09-20T02:28:00.931Z,0.00
2022-09-20T02:29:00.281Z,0.00
2022-09-20T02:30:00.939Z,0.00
2022-09-20T02:31:00.894Z,0.00
2022-09-20T02:32:00.932Z,0.00
2022-09-20T02:33:00.191Z,0.00
2022-09-20T02:34:00.855Z,0.00
2022-09-20T02:35:00.213Z,0.00
2022-09-20T02:36:00.836Z,0.00
2022-09-20T02:37:00.155Z,0.00
2022-09-20T02:38:00.155Z,0.00
2022-09-20T02:39:00.126Z,0.00
2022-09-20T02:40:00.957Z,0.00
2022-09-20T02:41:00.796Z,0.00
2022-09-20T02:42:00.108Z,0.00
2022-09-20T02:43:00.769Z,0.00
2022-09-20T02:44:00.755Z,0.00
2022-09-20T02:45:00.061Z,0.00
2022-09-20T02:46:00.267Z,0.00
2022-09-20T02:47:00.716Z,0.00
2022-09-20T02:48:00.064Z,0.00
2022-09-20T02:49:00.697Z,0.00
2022-09-20T02:50:00.686Z,0.00
2022-09-20T02:51:00.004Z,0.00
2022-09-20T02:52:00.006Z,0.00
2022-09-20T02:53:00.657Z,0.00
2022-09-20T02:54:00.176Z,0.00
2022-09-20T02:55:00.637Z,0.00
2022-09-20T02:55:59.941Z,0.00
2022-09-20T02:57:00.610Z,0.00
2022-09-20T02:57:59.961Z,0.00
2022-09-20T02:59:00.589Z,0.00
2022-09-20T02:59:59.941Z,0.00
2022-09-20T03:01:00.650Z,0.00
2022-09-20T03:01:59.958Z,0.00
2022-09-20T03:03:01.319Z,0.00
2022-09-20T03:03:59.978Z,0.00
2022-09-20T03:04:59.859Z,0.00
2022-09-20T03:05:59.830Z,0.00
2022-09-20T03:06:59.823Z,0.00
2022-09-20T03:08:02.241Z,0.00
2022-09-20T03:08:59.802Z,0.00
2022-09-20T03:09:59.822Z,0.00
2022-09-20T03:11:00.467Z,0.00
2022-09-20T03:11:59.831Z,0.00
2022-09-20T03:13:01.222Z,0.00
2022-09-20T03:14:00.441Z,0.00
2022-09-20T03:14:59.793Z,0.00
2022-09-20T03:15:59.871Z,0.00
2022-09-20T03:17:00.445Z,0.00
2022-09-20T03:17:59.724Z,0.00
2022-09-20T03:19:00.385Z,0.00
2022-09-20T03:19:59.683Z,0.00
2022-09-20T03:20:59.693Z,0.00
2022-09-20T03:21:59.710Z,0.00
2022-09-20T03:22:59.633Z,0.00
2022-09-20T03:23:59.645Z,0.00
2022-09-20T03:25:00.315Z,0.00
2022-09-20T03:26:00.303Z,0.00
2022-09-20T03:26:59.625Z,0.00
2022-09-20T03:27:59.654Z,0.00
2022-09-20T03:29:00.264Z,0.00
2022-09-20T03:29:59.600Z,0.00
2022-09-20T03:30:59.565Z,0.00
2022-09-20T03:32:00.298Z,0.00
2022-09-20T03:33:00.229Z,0.00
2022-09-20T03:33:59.650Z,0.00
2022-09-20T03:34:59.578Z,0.00
2022-09-20T03:36:00.468Z,0.00
2022-09-20T03:37:00.207Z,0.00
2022-09-20T03:37:59.507Z,0.00
2022-09-20T03:38:59.499Z,0.00
2022-09-20T03:40:00.348Z,0.00
2022-09-20T03:41:00.140Z,0.00
2022-09-20T03:41:59.458Z,0.00
2022-09-20T03:42:59.436Z,0.00
2022-09-20T03:43:59.469Z,0.00
2022-09-20T03:44:59.426Z,0.00
2022-09-20T03:45:59.625Z,0.00
2022-09-20T03:47:00.079Z,0.00
2022-09-20T03:47:59.387Z,0.00
2022-09-20T03:49:00.063Z,0.00
2022-09-20T03:49:59.639Z,0.00
2022-09-20T03:51:00.028Z,0.00
2022-09-20T03:52:00.914Z,0.00
2022-09-20T03:52:59.319Z,0.00
2022-09-20T03:53:59.299Z,0.00
2022-09-20T03:54:59.367Z,0.00
2022-09-20T03:55:59.322Z,0.00
2022-09-20T03:56:59.431Z,0.00
2022-09-20T03:57:59.311Z,0.00
2022-09-20T03:58:59.527Z,0.00
2022-09-20T03:59:59.280Z,0.00
2022-09-20T04:00:59.335Z,0.00
2022-09-20T04:02:01.168Z,0.00
2022-09-20T04:02:59.641Z,0.00
2022-09-20T04:03:59.317Z,0.00
2022-09-20T04:04:59.266Z,0.00
2022-09-20T04:05:59.192Z,0.00
2022-09-20T04:06:59.191Z,0.00
2022-09-20T04:07:59.212Z,0.00
2022-09-20T04:08:59.839Z,0.00
2022-09-20T04:09:59.930Z,0.00
2022-09-20T04:10:59.163Z,0.00
2022-09-20T04:11:59.804Z,0.00
2022-09-20T04:12:59.797Z,0.00
2022-09-20T04:13:59.783Z,0.00
2022-09-20T04:14:59.775Z,0.00
2022-09-20T04:15:59.854Z,0.00
2022-09-20T04:16:59.119Z,0.00
2022-09-20T04:17:59.744Z,0.00
2022-09-20T04:18:59.745Z,0.00
2022-09-20T04:20:00.475Z,0.00
2022-09-20T04:20:59.014Z,0.00
2022-09-20T04:21:59.770Z,0.00
2022-09-20T04:22:59.017Z,0.00
2022-09-20T04:23:59.675Z,0.00
2022-09-20T04:24:59.945Z,0.00
2022-09-20T04:25:59.655Z,0.00
2022-09-20T04:26:58.975Z,0.00
2022-09-20T04:27:59.058Z,0.00
2022-09-20T04:28:58.936Z,0.00
2022-09-20T04:29:59.606Z,0.00
2022-09-20T04:30:59.589Z,0.00
2022-09-20T04:31:59.642Z,0.00
2022-09-20T04:32:59.568Z,0.00
2022-09-20T04:33:59.859Z,0.00
2022-09-20T04:35:00.297Z,0.00
2022-09-20T04:35:58.858Z,0.00
2022-09-20T04:36:58.858Z,0.00
2022-09-20T04:37:59.811Z,0.00
2022-09-20T04:38:59.779Z,0.00
2022-09-20T04:39:58.873Z,0.00
2022-09-20T04:40:58.817Z,4.00
2022-09-20T04:41:58.800Z,4.00
2022-09-20T04:43:00.238Z,0.00
2022-09-20T04:43:58.791Z,4.00
2022-09-20T04:44:59.449Z,4.00
2022-09-20T04:45:59.499Z,4.00
2022-09-20T04:46:58.749Z,4.00
2022-09-20T04:47:58.750Z,8.00
2022-09-20T04:48:58.729Z,8.00
2022-09-20T04:50:00.193Z,8.00
2022-09-20T04:50:58.682Z,8.00
2022-09-20T04:51:58.800Z,12.00
2022-09-20T04:52:59.631Z,12.00
2022-09-20T04:53:59.360Z,12.00
2022-09-20T04:54:59.498Z,16.00
2022-09-20T04:55:59.341Z,20.00
2022-09-20T04:56:58.638Z,24.00
2022-09-20T04:57:59.382Z,28.00
2022-09-20T04:58:58.720Z,32.00
2022-09-20T04:59:59.290Z,36.00
2022-09-20T05:00:59.310Z,40.00
2022-09-20T05:01:59.636Z,48.00
2022-09-20T05:02:58.581Z,56.00
2022-09-20T05:03:58.614Z,60.00
2022-09-20T05:04:58.572Z,72.00
2022-09-20T05:05:59.491Z,76.00
2022-09-20T05:06:59.474Z,84.00
2022-09-20T05:07:59.203Z,96.00
2022-09-20T05:08:59.473Z,104.00
2022-09-20T05:09:59.173Z,120.00
2022-09-20T05:10:58.505Z,132.00
2022-09-20T05:11:59.424Z,140.00
2022-09-20T05:12:58.464Z,152.00
2022-09-20T05:13:59.399Z,168.00
2022-09-20T05:14:59.135Z,184.00
2022-09-20T05:15:59.306Z,192.00
2022-09-20T05:16:59.171Z,212.00
2022-09-20T05:17:59.098Z,228.00
2022-09-20T05:18:58.425Z,244.00
2022-09-20T05:19:59.078Z,256.00
2022-09-20T05:20:58.443Z,272.00
2022-09-20T05:21:58.496Z,292.00
2022-09-20T05:22:59.206Z,312.00
2022-09-20T05:23:58.402Z,328.00
2022-09-20T05:24:59.198Z,352.00
2022-09-20T05:25:59.018Z,368.00
2022-09-20T05:26:59.154Z,392.00
2022-09-20T05:27:59.302Z,412.00
2022-09-20T05:28:59.135Z,432.00
2022-09-20T05:30:01.060Z,456.00
2022-09-20T05:30:58.976Z,480.00
2022-09-20T05:31:59.205Z,500.00
2022-09-20T05:32:59.088Z,524.00
2022-09-20T05:33:59.207Z,548.00
2022-09-20T05:34:58.909Z,576.00
2022-09-20T05:36:00.201Z,616.00
2022-09-20T05:36:58.899Z,632.00
2022-09-20T05:37:59.179Z,656.00
2022-09-20T05:39:01.424Z,696.00
2022-09-20T05:39:59.354Z,724.00
2022-09-20T05:40:58.850Z,728.00
2022-09-20T05:41:59.117Z,736.00
2022-09-20T05:42:59.060Z,740.00
2022-09-20T05:43:58.999Z,732.00
2022-09-20T05:44:58.820Z,724.00
2022-09-20T05:45:58.956Z,732.00
2022-09-20T05:46:58.131Z,752.00
2022-09-20T05:47:58.183Z,768.00
2022-09-20T05:48:59.012Z,772.00
2022-09-20T05:49:58.080Z,776.00
2022-09-20T05:51:03.105Z,776.00
2022-09-20T05:52:00.118Z,772.00
2022-09-20T05:52:58.729Z,764.00
2022-09-20T05:53:59.962Z,776.00
2022-09-20T05:54:58.014Z,784.00
2022-09-20T05:55:58.684Z,820.00
2022-09-20T05:56:58.681Z,860.00
2022-09-20T05:57:58.043Z,912.00
2022-09-20T05:58:58.655Z,968.00
2022-09-20T05:59:57.994Z,1016.00
2022-09-20T06:00:58.665Z,1040.00
2022-09-20T06:01:58.023Z,1076.00
2022-09-20T06:02:59.875Z,1124.00
2022-09-20T06:03:59.054Z,1164.00
2022-09-20T06:04:59.935Z,1196.00
2022-09-20T06:05:57.913Z,1212.00
2022-09-20T06:06:57.966Z,1220.00
2022-09-20T06:07:59.855Z,1232.00
2022-09-20T06:08:58.854Z,1248.00
2022-09-20T06:09:59.883Z,1284.00
2022-09-20T06:10:58.532Z,1308.00
2022-09-20T06:11:59.775Z,1376.00
2022-09-20T06:12:58.503Z,1420.00
2022-09-20T06:13:57.856Z,1516.00
2022-09-20T06:14:59.745Z,1620.00
2022-09-20T06:15:59.758Z,1708.00
2022-09-20T06:16:59.728Z,1796.00
2022-09-20T06:17:58.707Z,1880.00
2022-09-20T06:18:58.717Z,1956.00
2022-09-20T06:19:57.766Z,2036.00
2022-09-20T06:20:58.697Z,2132.00
2022-09-20T06:22:03.052Z,2220.00
2022-09-20T06:22:59.661Z,2328.00
2022-09-20T06:23:59.699Z,2432.00
2022-09-20T06:24:59.148Z,2504.00
2022-09-20T06:25:58.672Z,2612.00
2022-09-20T06:26:58.631Z,2724.00
2022-09-20T06:27:59.628Z,2728.00
2022-09-20T06:28:58.698Z,2572.00
2022-09-20T06:29:59.615Z,2400.00
2022-09-20T06:30:58.379Z,2304.00
2022-09-20T06:31:57.641Z,2464.00
2022-09-20T06:32:59.540Z,2232.00
2022-09-20T06:33:58.280Z,2196.00
2022-09-20T06:34:59.580Z,2152.00
2022-09-20T06:35:59.552Z,2096.00
2022-09-20T06:36:58.500Z,2060.00
2022-09-20T06:37:58.517Z,2024.00
2022-09-20T06:38:59.481Z,1968.00
2022-09-20T06:39:59.549Z,1920.00
2022-09-20T06:40:58.201Z,1884.00
2022-09-20T06:41:58.493Z,1872.00
2022-09-20T06:42:59.431Z,1896.00
2022-09-20T06:43:57.544Z,1896.00
2022-09-20T06:44:59.413Z,1940.00
2022-09-20T06:45:59.494Z,2144.00
2022-09-20T06:46:58.422Z,3368.00
2022-09-20T06:47:58.123Z,5156.00
2022-09-20T06:48:58.114Z,7388.00
2022-09-20T06:49:59.442Z,9024.00
2022-09-20T06:50:58.354Z,9232.00
2022-09-20T06:51:59.462Z,6324.00
2022-09-20T06:52:58.843Z,6216.00
2022-09-20T06:53:59.318Z,8320.00
2022-09-20T06:54:59.305Z,8884.00
2022-09-20T06:55:58.326Z,8860.00
2022-09-20T06:56:57.366Z,8920.00
2022-09-20T06:57:59.305Z,9060.00
2022-09-20T06:58:57.328Z,9392.00
2022-09-20T06:59:57.349Z,9560.00
2022-09-20T07:00:58.014Z,9756.00
2022-09-20T07:01:57.378Z,9636.00
2022-09-20T07:02:57.298Z,9512.00
2022-09-20T07:03:57.946Z,10104.00
2022-09-20T07:04:57.266Z,10624.00
2022-09-20T07:05:59.188Z,10428.00
2022-09-20T07:06:57.930Z,9892.00
2022-09-20T07:07:57.920Z,9952.00
2022-09-20T07:08:57.907Z,10084.00
2022-09-20T07:09:59.189Z,10164.00
2022-09-20T07:10:57.930Z,10576.00
2022-09-20T07:11:57.222Z,11396.00
2022-09-20T07:12:57.858Z,11152.00
2022-09-20T07:13:57.849Z,10940.00
2022-09-20T07:14:57.847Z,11452.00
2022-09-20T07:15:57.267Z,11444.00
2022-09-20T07:16:57.209Z,11480.00
2022-09-20T07:17:58.051Z,11588.00
2022-09-20T07:18:57.794Z,11820.00
2022-09-20T07:19:57.785Z,13076.00
2022-09-20T07:20:57.766Z,14944.00
2022-09-20T07:21:58.132Z,6000.00
2022-09-20T07:22:57.077Z,5844.00
2022-09-20T07:23:57.732Z,14720.00
2022-09-20T07:24:57.732Z,15552.00
2022-09-20T07:25:57.035Z,17312.00
2022-09-20T07:26:57.710Z,19648.00
2022-09-20T07:27:57.682Z,20448.00
2022-09-20T07:28:57.004Z,18784.00
2022-09-20T07:29:57.675Z,15936.00
2022-09-20T07:30:57.665Z,13164.00
2022-09-20T07:31:57.684Z,12832.00
2022-09-20T07:32:56.955Z,12812.00
2022-09-20T07:33:57.073Z,12208.00
2022-09-20T07:34:57.024Z,11564.00
2022-09-20T07:35:57.606Z,11336.00
2022-09-20T07:36:57.597Z,11304.00
2022-09-20T07:37:57.595Z,11476.00
2022-09-20T07:38:56.909Z,11600.00
2022-09-20T07:39:56.952Z,12320.00
2022-09-20T07:40:57.556Z,13852.00
2022-09-20T07:41:56.862Z,16768.00
2022-09-20T07:42:57.537Z,16896.00
2022-09-20T07:43:56.841Z,14756.00
2022-09-20T07:44:56.839Z,13636.00
2022-09-20T07:45:56.865Z,15584.00
2022-09-20T07:46:57.755Z,11804.00
2022-09-20T07:47:56.821Z,12680.00
2022-09-20T07:48:57.472Z,9904.00
2022-09-20T07:49:57.451Z,10908.00
2022-09-20T07:50:56.761Z,7804.00
2022-09-20T07:51:57.422Z,9884.00
2022-09-20T07:52:57.432Z,7628.00
2022-09-20T07:53:57.422Z,9068.00
2022-09-20T07:54:57.404Z,10148.00
2022-09-20T07:55:58.153Z,6708.00
2022-09-20T07:56:57.397Z,6768.00
2022-09-20T07:57:57.365Z,7272.00
2022-09-20T07:58:57.365Z,8880.00
2022-09-20T07:59:56.713Z,6724.00
2022-09-20T08:00:56.688Z,6576.00
2022-09-20T08:01:57.358Z,11564.00
2022-09-20T08:02:57.318Z,16768.00
2022-09-20T08:03:58.076Z,17696.00
2022-09-20T08:04:57.305Z,22176.00
2022-09-20T08:05:57.288Z,26304.00
2022-09-20T08:06:57.283Z,26784.00
2022-09-20T08:07:56.630Z,27808.00
2022-09-20T08:08:57.255Z,27808.00
2022-09-20T08:09:56.590Z,13436.00
2022-09-20T08:10:57.235Z,14344.00
2022-09-20T08:11:57.634Z,10936.00
2022-09-20T08:14:07.057Z,14268.00
2022-09-20T08:14:59.450Z,8556.00
2022-09-20T08:15:57.185Z,8556.00
2022-09-20T08:16:56.558Z,8068.00
2022-09-20T08:17:56.481Z,7912.00
2022-09-20T08:18:56.461Z,7404.00
2022-09-20T08:19:57.169Z,7876.00
2022-09-20T08:20:56.468Z,7968.00
2022-09-20T08:21:56.441Z,8980.00
2022-09-20T08:23:21.889Z,11108.00
2022-09-20T08:23:59.394Z,9320.00
2022-09-20T08:24:56.422Z,12236.00
2022-09-20T08:25:57.064Z,9600.00
2022-09-20T08:26:57.027Z,9932.00
2022-09-20T08:27:56.598Z,9672.00
2022-09-20T08:28:56.456Z,8948.00
2022-09-20T08:29:57.036Z,8644.00
2022-09-20T08:30:56.338Z,12916.00
2022-09-20T08:31:57.081Z,11096.00
2022-09-20T08:32:57.073Z,9092.00
2022-09-20T08:33:56.355Z,10828.00
2022-09-20T08:34:56.356Z,8212.00
2022-09-20T08:35:57.713Z,8400.00
2022-09-20T08:36:56.278Z,8412.00
2022-09-20T08:37:56.998Z,9012.00
2022-09-20T08:39:58.404Z,9268.00
2022-09-20T08:40:56.908Z,9320.00
2022-09-20T08:41:56.199Z,11016.00
2022-09-20T08:42:56.319Z,10192.00
2022-09-20T08:43:56.224Z,9280.00
2022-09-20T08:44:59.416Z,9008.00
2022-09-20T08:45:56.888Z,13592.00
2022-09-20T08:46:56.231Z,10760.00
2022-09-20T08:47:58.833Z,19520.00
2022-09-20T08:48:56.822Z,13844.00
2022-09-20T08:49:57.396Z,16608.00
2022-09-20T08:50:56.793Z,15232.00
2022-09-20T08:51:56.793Z,11580.00
2022-09-20T08:53:00.082Z,12152.00
2022-09-20T08:53:56.769Z,21376.00
2022-09-20T08:54:56.092Z,20832.00
2022-09-20T08:55:56.773Z,25664.00
2022-09-20T08:56:56.825Z,33568.00
2022-09-20T08:57:56.734Z,31872.00
2022-09-20T08:58:56.724Z,25600.00
2022-09-20T08:59:56.714Z,7444.00
2022-09-20T09:00:56.736Z,35328.00
2022-09-20T09:01:56.041Z,32160.00
2022-09-20T09:02:56.646Z,11536.00
2022-09-20T09:03:56.666Z,12944.00
2022-09-20T09:04:56.923Z,8572.00
2022-09-20T09:05:55.967Z,7336.00
2022-09-20T09:06:55.954Z,7128.00
2022-09-20T09:07:56.621Z,9740.00
2022-09-20T09:08:56.106Z,9416.00
2022-09-20T09:09:57.375Z,9528.00
2022-09-20T09:10:56.588Z,6648.00
2022-09-20T09:11:56.577Z,6724.00
2022-09-20T09:12:55.973Z,8448.00
2022-09-20T09:13:56.569Z,8400.00
2022-09-20T09:14:56.518Z,7044.00
2022-09-20T09:15:56.528Z,8712.00
2022-09-20T09:16:56.598Z,7056.00
2022-09-20T09:17:56.512Z,6312.00
2022-09-20T09:18:56.513Z,6596.00
2022-09-20T09:19:57.265Z,7588.00
2022-09-20T09:20:56.450Z,6336.00
2022-09-20T09:21:55.806Z,5764.00
2022-09-20T09:22:56.536Z,5304.00
2022-09-20T09:23:56.712Z,4648.00
2022-09-20T09:24:55.775Z,4944.00
2022-09-20T09:25:56.431Z,4828.00
2022-09-20T09:26:55.763Z,4284.00
2022-09-20T09:27:56.403Z,3840.00
2022-09-20T09:28:55.744Z,3632.00
2022-09-20T09:29:56.389Z,3524.00
2022-09-20T09:30:56.378Z,3612.00
2022-09-20T09:31:55.778Z,4092.00
2022-09-20T09:32:56.645Z,4352.00
2022-09-20T09:33:56.348Z,4556.00
2022-09-20T09:34:56.325Z,4936.00
2022-09-20T09:35:56.324Z,5500.00
2022-09-20T09:36:55.649Z,6204.00
2022-09-20T09:37:55.668Z,6724.00
2022-09-20T09:38:56.296Z,7244.00
2022-09-20T09:39:56.395Z,7596.00
2022-09-20T09:40:57.080Z,7848.00
2022-09-20T09:41:55.619Z,7604.00
2022-09-20T09:42:56.247Z,7472.00
2022-09-20T09:43:55.697Z,7540.00
2022-09-20T09:44:55.539Z,7472.00
2022-09-20T09:45:56.989Z,7336.00
2022-09-20T09:46:56.461Z,7272.00
2022-09-20T09:47:55.501Z,7168.00
2022-09-20T09:48:55.544Z,7092.00
2022-09-20T09:50:00.154Z,6916.00
2022-09-20T09:50:57.920Z,7160.00
2022-09-20T09:51:56.150Z,6652.00
2022-09-20T09:52:56.132Z,6632.00
2022-09-20T09:53:56.132Z,6708.00
2022-09-20T09:54:56.123Z,6636.00
2022-09-20T09:55:56.187Z,6660.00
2022-09-20T09:56:56.093Z,6532.00
2022-09-20T09:57:56.089Z,6900.00
2022-09-20T09:58:56.833Z,6452.00
2022-09-20T09:59:56.107Z,6352.00
2022-09-20T10:00:56.457Z,6884.00
2022-09-20T10:01:56.157Z,6828.00
2022-09-20T10:02:55.414Z,6344.00
2022-09-20T10:03:56.020Z,6340.00
2022-09-20T10:04:56.058Z,6376.00
2022-09-20T10:05:55.995Z,6348.00
2022-09-20T10:06:55.986Z,6288.00
2022-09-20T10:07:56.368Z,6552.00
2022-09-20T10:08:55.316Z,6404.00
2022-09-20T10:09:55.968Z,6260.00
2022-09-20T10:10:56.688Z,6828.00
2022-09-20T10:11:55.929Z,6408.00
2022-09-20T10:12:55.247Z,6444.00
2022-09-20T10:13:55.331Z,7208.00
2022-09-20T10:14:55.243Z,6912.00
2022-09-20T10:15:55.902Z,6964.00
2022-09-20T10:16:55.970Z,7120.00
2022-09-20T10:17:55.867Z,6912.00
2022-09-20T10:18:55.860Z,6788.00
2022-09-20T10:19:55.861Z,6804.00
2022-09-20T10:20:55.179Z,6804.00
2022-09-20T10:21:55.829Z,6848.00
2022-09-20T10:23:30.039Z,6792.00
2022-09-20T10:24:03.525Z,6700.00
2022-09-20T10:24:56.166Z,6624.00
2022-09-20T10:25:55.115Z,6512.00
2022-09-20T10:26:55.087Z,6464.00
2022-09-20T10:27:55.765Z,6456.00
2022-09-20T10:28:55.842Z,6328.00
2022-09-20T10:29:55.740Z,6412.00
2022-09-20T10:30:55.181Z,6428.00
2022-09-20T10:31:55.034Z,6628.00
2022-09-20T10:32:55.714Z,6380.00
2022-09-20T10:33:55.695Z,6304.00
2022-09-20T10:34:55.026Z,6260.00
2022-09-20T10:35:55.925Z,6036.00
2022-09-20T10:36:55.666Z,5432.00
2022-09-20T10:37:55.007Z,4884.00
2022-09-20T10:38:55.917Z,4388.00
2022-09-20T10:39:54.999Z,3992.00
2022-09-20T10:40:54.957Z,3620.00
2022-09-20T10:41:55.615Z,3328.00
2022-09-20T10:42:55.987Z,3112.00
2022-09-20T10:43:55.599Z,2896.00
2022-09-20T10:44:55.579Z,2776.00
2022-09-20T10:46:55.940Z,2608.00
2022-09-20T10:47:54.934Z,2560.00
2022-09-20T10:48:55.533Z,2384.00
2022-09-20T10:49:55.519Z,2432.00
2022-09-20T10:50:55.555Z,2672.00
2022-09-20T10:51:55.514Z,2880.00
2022-09-20T10:52:55.494Z,2852.00
2022-09-20T10:53:55.482Z,2668.00
2022-09-20T10:54:55.682Z,2512.00
2022-09-20T10:55:54.792Z,2340.00
2022-09-20T10:56:55.726Z,2232.00
2022-09-20T10:57:55.443Z,2156.00
2022-09-20T10:58:54.778Z,2108.00
2022-09-20T10:59:55.423Z,2092.00
2022-09-20T11:00:54.885Z,2076.00
2022-09-20T11:01:54.836Z,1932.00
2022-09-20T11:02:54.747Z,1980.00
2022-09-20T11:03:54.687Z,1832.00
2022-09-20T11:04:55.366Z,1824.00
2022-09-20T11:05:55.352Z,2164.00
2022-09-20T11:06:54.768Z,2220.00
2022-09-20T11:07:55.349Z,2468.00
2022-09-20T11:08:54.643Z,2804.00
2022-09-20T11:09:55.314Z,3088.00
2022-09-20T11:10:54.606Z,3160.00
2022-09-20T11:11:54.607Z,2840.00
2022-09-20T11:12:55.358Z,2620.00
2022-09-20T11:13:54.974Z,2300.00
2022-09-20T11:14:55.258Z,2368.00
2022-09-20T11:15:54.577Z,2396.00
2022-09-20T11:16:55.289Z,2240.00
2022-09-20T11:17:54.617Z,2260.00
2022-09-20T11:18:55.358Z,2468.00
2022-09-20T11:19:55.439Z,2812.00
2022-09-20T11:20:55.192Z,2684.00
2022-09-20T11:21:55.205Z,2276.00
2022-09-20T11:22:55.941Z,2260.00
2022-09-20T11:23:55.426Z,2304.00
2022-09-20T11:24:55.231Z,2276.00
2022-09-20T11:25:55.401Z,2360.00
2022-09-20T11:26:55.881Z,2384.00
2022-09-20T11:27:54.449Z,2216.00
2022-09-20T11:28:55.282Z,2584.00
2022-09-20T11:29:55.102Z,2684.00
2022-09-20T11:30:55.073Z,2924.00
2022-09-20T11:31:55.133Z,3112.00
2022-09-20T11:32:55.061Z,2948.00
2022-09-20T11:33:54.363Z,3308.00
2022-09-20T11:34:55.043Z,3176.00
2022-09-20T11:35:54.353Z,3432.00
2022-09-20T11:36:55.013Z,3752.00
2022-09-20T11:37:55.013Z,4196.00
2022-09-20T11:38:54.997Z,4160.00
2022-09-20T11:39:55.002Z,4032.00
2022-09-20T11:40:54.295Z,3900.00
2022-09-20T11:41:54.312Z,3788.00
2022-09-20T11:42:54.314Z,3816.00
2022-09-20T11:43:54.937Z,3824.00
2022-09-20T11:44:54.933Z,3888.00
2022-09-20T11:45:54.299Z,3936.00
2022-09-20T11:46:54.265Z,3992.00
2022-09-20T11:47:55.832Z,3792.00
2022-09-20T11:48:54.248Z,3960.00
2022-09-20T11:49:56.187Z,3904.00
2022-09-20T11:50:54.869Z,3500.00
2022-09-20T11:51:54.860Z,3352.00
2022-09-20T11:52:54.851Z,3288.00
2022-09-20T11:53:54.164Z,3268.00
2022-09-20T11:54:54.209Z,3120.00
2022-09-20T11:55:54.162Z,3224.00
2022-09-20T11:56:54.123Z,3420.00
2022-09-20T11:57:54.795Z,3420.00
2022-09-20T11:58:54.150Z,3292.00
2022-09-20T11:59:54.767Z,3120.00
2022-09-20T12:00:54.760Z,3004.00
2022-09-20T12:01:54.111Z,3040.00
2022-09-20T12:02:54.838Z,3272.00
2022-09-20T12:04:20.693Z,3468.00
2022-09-20T12:04:55.044Z,3624.00
2022-09-20T12:05:54.042Z,3764.00
2022-09-20T12:06:54.675Z,3876.00
2022-09-20T12:07:54.087Z,3816.00
2022-09-20T12:08:53.985Z,3948.00
2022-09-20T12:09:54.030Z,4188.00
2022-09-20T12:10:53.975Z,4444.00
2022-09-20T12:11:54.044Z,4512.00
2022-09-20T12:12:54.065Z,4528.00
2022-09-20T12:13:54.625Z,4684.00
2022-09-20T12:14:54.616Z,4852.00
2022-09-20T12:15:54.593Z,5092.00
2022-09-20T12:16:54.651Z,5236.00
2022-09-20T12:17:54.464Z,5428.00
2022-09-20T12:18:53.951Z,5464.00
2022-09-20T12:19:53.908Z,5484.00
2022-09-20T12:20:53.870Z,5272.00
2022-09-20T12:21:53.868Z,5024.00
2022-09-20T12:22:53.900Z,4516.00
2022-09-20T12:23:53.851Z,4136.00
2022-09-20T12:24:53.852Z,3784.00
2022-09-20T12:25:53.871Z,3444.00
2022-09-20T12:26:53.908Z,3228.00
2022-09-20T12:27:53.830Z,3076.00
2022-09-20T12:28:53.838Z,2968.00
2022-09-20T12:29:53.783Z,2968.00
2022-09-20T12:30:53.865Z,3068.00
2022-09-20T12:31:53.889Z,3160.00
2022-09-20T12:32:54.419Z,3256.00
2022-09-20T12:33:53.752Z,3472.00
2022-09-20T12:34:54.392Z,3752.00